sensor_id;sensor_type;location;lat;lon;timestamp;P1;durP1;ratioP1;P2;durP2;ratioP2
9465;SDS011;4771;48.726;9.006;2023-02-01T00:01:06;4.80;;;3.60;;
9465;SDS011;4771;48.726;9.006;2023-02-01T00:03:33;5.40;;;4.13;;
9465;SDS011;4771;48.726;9.006;2023-02-01T00:06:00;5.17;;;4.20;;
9465;SDS011;4771;48.726;9.006;2023-02-01T00:08:27;5.27;;;3.87;;
9465;SDS011;4771;48.726;9.006;2023-02-01T00:10:59;4.73;;;3.93;;
9465;SDS011;4771;48.726;9.006;2023-02-01T00:13:27;5.47;;;3.90;;
9465;SDS011;4771;48.726;9.006;2023-02-01T00:16:01;4.33;;;3.53;;
9465;SDS011;4771;48.726;9.006;2023-02-01T00:18:29;4.90;;;3.90;;
9465;SDS011;4771;48.726;9.006;2023-02-01T00:20:55;3.80;;;3.40;;
9465;SDS011;4771;48.726;9.006;2023-02-01T00:23:22;3.77;;;3.40;;
9465;SDS011;4771;48.726;9.006;2023-02-01T00:25:49;4.07;;;3.67;;
9465;SDS011;4771;48.726;9.006;2023-02-01T00:28:17;3.50;;;3.20;;
9465;SDS011;4771;48.726;9.006;2023-02-01T00:30:44;3.40;;;3.10;;
9465;SDS011;4771;48.726;9.006;2023-02-01T00:33:11;3.73;;;3.07;;
9465;SDS011;4771;48.726;9.006;2023-02-01T00:35:38;3.20;;;2.90;;
9465;SDS011;4771;48.726;9.006;2023-02-01T00:38:05;4.50;;;3.27;;
9465;SDS011;4771;48.726;9.006;2023-02-01T00:40:32;4.97;;;3.20;;
9465;SDS011;4771;48.726;9.006;2023-02-01T00:42:58;3.53;;;3.10;;
9465;SDS011;4771;48.726;9.006;2023-02-01T00:45:27;3.27;;;2.90;;
9465;SDS011;4771;48.726;9.006;2023-02-01T00:47:53;3.47;;;3.07;;
9465;SDS011;4771;48.726;9.006;2023-02-01T00:50:20;4.50;;;3.07;;
9465;SDS011;4771;48.726;9.006;2023-02-01T00:52:47;3.90;;;3.27;;
9465;SDS011;4771;48.726;9.006;2023-02-01T00:55:14;4.27;;;2.67;;
9465;SDS011;4771;48.726;9.006;2023-02-01T00:57:41;3.07;;;2.73;;
9465;SDS011;4771;48.726;9.006;2023-02-01T01:00:08;3.13;;;2.83;;
9465;SDS011;4771;48.726;9.006;2023-02-01T01:02:37;3.37;;;2.80;;
9465;SDS011;4771;48.726;9.006;2023-02-01T01:05:04;3.63;;;2.77;;
9465;SDS011;4771;48.726;9.006;2023-02-01T01:07:31;3.03;;;2.57;;
9465;SDS011;4771;48.726;9.006;2023-02-01T01:09:58;3.30;;;2.87;;
9465;SDS011;4771;48.726;9.006;2023-02-01T01:12:25;2.83;;;2.40;;
9465;SDS011;4771;48.726;9.006;2023-02-01T01:14:52;2.60;;;2.30;;
9465;SDS011;4771;48.726;9.006;2023-02-01T01:17:18;2.70;;;2.47;;
9465;SDS011;4771;48.726;9.006;2023-02-01T01:19:47;3.37;;;2.20;;
9465;SDS011;4771;48.726;9.006;2023-02-01T01:22:13;2.67;;;2.47;;
9465;SDS011;4771;48.726;9.006;2023-02-01T01:24:40;3.10;;;2.60;;
9465;SDS011;4771;48.726;9.006;2023-02-01T01:27:07;2.57;;;2.20;;
9465;SDS011;4771;48.726;9.006;2023-02-01T01:29:34;2.33;;;2.00;;
9465;SDS011;4771;48.726;9.006;2023-02-01T01:32:01;2.87;;;2.50;;
9465;SDS011;4771;48.726;9.006;2023-02-01T01:34:27;2.93;;;2.40;;
9465;SDS011;4771;48.726;9.006;2023-02-01T01:36:56;2.63;;;2.33;;
9465;SDS011;4771;48.726;9.006;2023-02-01T01:39:23;2.63;;;2.43;;
9465;SDS011;4771;48.726;9.006;2023-02-01T01:41:50;2.53;;;2.33;;
9465;SDS011;4771;48.726;9.006;2023-02-01T01:47:21;3.03;;;2.60;;
9465;SDS011;4771;48.726;9.006;2023-02-01T01:49:48;3.00;;;2.50;;
9465;SDS011;4771;48.726;9.006;2023-02-01T01:52:17;3.50;;;2.60;;
9465;SDS011;4771;48.726;9.006;2023-02-01T01:54:45;3.23;;;2.80;;
9465;SDS011;4771;48.726;9.006;2023-02-01T01:57:16;3.47;;;2.70;;
9465;SDS011;4771;48.726;9.006;2023-02-01T01:59:46;5.07;;;2.80;;
9465;SDS011;4771;48.726;9.006;2023-02-01T02:02:19;4.77;;;2.80;;
9465;SDS011;4771;48.726;9.006;2023-02-01T02:04:46;3.37;;;2.73;;
9465;SDS011;4771;48.726;9.006;2023-02-01T02:07:14;3.00;;;2.70;;
9465;SDS011;4771;48.726;9.006;2023-02-01T02:09:46;3.70;;;2.90;;
9465;SDS011;4771;48.726;9.006;2023-02-01T02:12:13;4.40;;;3.00;;
9465;SDS011;4771;48.726;9.006;2023-02-01T02:14:40;3.63;;;3.03;;
9465;SDS011;4771;48.726;9.006;2023-02-01T02:17:10;3.93;;;3.00;;
9465;SDS011;4771;48.726;9.006;2023-02-01T02:23:15;5.00;;;3.60;;
9465;SDS011;4771;48.726;9.006;2023-02-01T02:26:09;3.30;;;3.00;;
9465;SDS011;4771;48.726;9.006;2023-02-01T02:29:00;3.07;;;2.77;;
9465;SDS011;4771;48.726;9.006;2023-02-01T02:31:52;4.30;;;3.67;;
9465;SDS011;4771;48.726;9.006;2023-02-01T02:34:29;3.90;;;3.03;;
9465;SDS011;4771;48.726;9.006;2023-02-01T02:37:00;3.40;;;3.10;;
9465;SDS011;4771;48.726;9.006;2023-02-01T02:39:38;3.87;;;3.00;;
9465;SDS011;4771;48.726;9.006;2023-02-01T02:42:17;3.33;;;3.03;;
9465;SDS011;4771;48.726;9.006;2023-02-01T02:45:08;3.33;;;2.80;;
9465;SDS011;4771;48.726;9.006;2023-02-01T02:48:02;3.77;;;3.07;;
9465;SDS011;4771;48.726;9.006;2023-02-01T02:50:40;2.77;;;2.57;;
9465;SDS011;4771;48.726;9.006;2023-02-01T02:53:28;3.10;;;2.80;;
9465;SDS011;4771;48.726;9.006;2023-02-01T02:56:29;4.33;;;2.83;;
9465;SDS011;4771;48.726;9.006;2023-02-01T02:59:14;2.93;;;2.60;;
9465;SDS011;4771;48.726;9.006;2023-02-01T03:02:02;3.30;;;2.90;;
9465;SDS011;4771;48.726;9.006;2023-02-01T03:04:46;2.90;;;2.60;;
9465;SDS011;4771;48.726;9.006;2023-02-01T03:10:22;2.97;;;2.73;;
9465;SDS011;4771;48.726;9.006;2023-02-01T03:12:54;2.80;;;2.53;;
9465;SDS011;4771;48.726;9.006;2023-02-01T03:15:26;4.73;;;2.60;;
9465;SDS011;4771;48.726;9.006;2023-02-01T03:17:58;4.00;;;2.77;;
9465;SDS011;4771;48.726;9.006;2023-02-01T03:20:28;4.87;;;2.70;;
9465;SDS011;4771;48.726;9.006;2023-02-01T03:22:59;2.90;;;2.60;;
9465;SDS011;4771;48.726;9.006;2023-02-01T03:25:27;3.37;;;2.80;;
9465;SDS011;4771;48.726;9.006;2023-02-01T03:27:57;3.07;;;2.77;;
9465;SDS011;4771;48.726;9.006;2023-02-01T03:30:27;3.30;;;3.00;;
9465;SDS011;4771;48.726;9.006;2023-02-01T03:32:56;3.07;;;2.77;;
9465;SDS011;4771;48.726;9.006;2023-02-01T03:35:28;3.47;;;2.80;;
9465;SDS011;4771;48.726;9.006;2023-02-01T03:37:59;2.97;;;2.70;;
9465;SDS011;4771;48.726;9.006;2023-02-01T03:40:35;3.20;;;2.67;;
9465;SDS011;4771;48.726;9.006;2023-02-01T03:43:04;3.20;;;2.90;;
9465;SDS011;4771;48.726;9.006;2023-02-01T03:45:35;3.03;;;2.53;;
9465;SDS011;4771;48.726;9.006;2023-02-01T03:48:07;2.70;;;2.50;;
9465;SDS011;4771;48.726;9.006;2023-02-01T03:50:36;3.00;;;2.60;;
9465;SDS011;4771;48.726;9.006;2023-02-01T03:53:11;3.07;;;2.50;;
9465;SDS011;4771;48.726;9.006;2023-02-01T03:55:42;3.77;;;2.80;;
9465;SDS011;4771;48.726;9.006;2023-02-01T03:58:10;3.20;;;2.80;;
9465;SDS011;4771;48.726;9.006;2023-02-01T04:00:40;5.07;;;3.00;;
9465;SDS011;4771;48.726;9.006;2023-02-01T04:03:10;4.23;;;2.60;;
9465;SDS011;4771;48.726;9.006;2023-02-01T04:05:36;3.70;;;2.70;;
9465;SDS011;4771;48.726;9.006;2023-02-01T04:08:03;4.00;;;2.40;;
9465;SDS011;4771;48.726;9.006;2023-02-01T04:10:32;4.77;;;2.90;;
9465;SDS011;4771;48.726;9.006;2023-02-01T04:12:59;3.10;;;2.50;;
9465;SDS011;4771;48.726;9.006;2023-02-01T04:15:26;3.47;;;2.77;;
9465;SDS011;4771;48.726;9.006;2023-02-01T04:17:52;3.33;;;2.90;;
9465;SDS011;4771;48.726;9.006;2023-02-01T04:20:19;2.70;;;2.50;;
9465;SDS011;4771;48.726;9.006;2023-02-01T04:22:46;3.43;;;2.77;;
9465;SDS011;4771;48.726;9.006;2023-02-01T04:25:13;2.87;;;2.50;;
9465;SDS011;4771;48.726;9.006;2023-02-01T04:27:43;2.60;;;2.40;;
9465;SDS011;4771;48.726;9.006;2023-02-01T04:30:11;3.73;;;2.83;;
9465;SDS011;4771;48.726;9.006;2023-02-01T04:32:38;2.47;;;2.27;;
9465;SDS011;4771;48.726;9.006;2023-02-01T04:35:06;2.50;;;2.30;;
9465;SDS011;4771;48.726;9.006;2023-02-01T04:37:34;2.43;;;2.23;;
9465;SDS011;4771;48.726;9.006;2023-02-01T04:40:01;2.40;;;2.20;;
9465;SDS011;4771;48.726;9.006;2023-02-01T04:42:29;4.03;;;2.53;;
9465;SDS011;4771;48.726;9.006;2023-02-01T04:44:57;2.53;;;2.33;;
9465;SDS011;4771;48.726;9.006;2023-02-01T04:47:23;3.13;;;2.83;;
9465;SDS011;4771;48.726;9.006;2023-02-01T04:49:51;3.10;;;2.50;;
9465;SDS011;4771;48.726;9.006;2023-02-01T04:52:18;2.50;;;2.30;;
9465;SDS011;4771;48.726;9.006;2023-02-01T04:54:44;3.00;;;2.70;;
9465;SDS011;4771;48.726;9.006;2023-02-01T04:57:11;2.73;;;2.53;;
9465;SDS011;4771;48.726;9.006;2023-02-01T04:59:40;3.00;;;2.70;;
9465;SDS011;4771;48.726;9.006;2023-02-01T05:02:08;2.70;;;2.40;;
9465;SDS011;4771;48.726;9.006;2023-02-01T05:04:35;3.10;;;2.63;;
9465;SDS011;4771;48.726;9.006;2023-02-01T05:07:01;3.57;;;2.67;;
9465;SDS011;4771;48.726;9.006;2023-02-01T05:09:28;2.67;;;2.47;;
9465;SDS011;4771;48.726;9.006;2023-02-01T05:11:55;3.10;;;2.37;;
9465;SDS011;4771;48.726;9.006;2023-02-01T05:14:40;3.70;;;2.60;;
9465;SDS011;4771;48.726;9.006;2023-02-01T05:17:08;3.80;;;2.23;;
9465;SDS011;4771;48.726;9.006;2023-02-01T05:19:35;2.83;;;2.53;;
9465;SDS011;4771;48.726;9.006;2023-02-01T05:22:02;3.00;;;2.70;;
9465;SDS011;4771;48.726;9.006;2023-02-01T05:24:28;2.60;;;2.40;;
9465;SDS011;4771;48.726;9.006;2023-02-01T05:26:55;3.00;;;2.60;;
9465;SDS011;4771;48.726;9.006;2023-02-01T05:29:22;3.47;;;2.57;;
9465;SDS011;4771;48.726;9.006;2023-02-01T05:31:49;2.20;;;2.00;;
9465;SDS011;4771;48.726;9.006;2023-02-01T05:34:17;3.23;;;2.60;;
9465;SDS011;4771;48.726;9.006;2023-02-01T05:36:44;3.60;;;2.30;;
9465;SDS011;4771;48.726;9.006;2023-02-01T05:39:11;3.17;;;2.20;;
9465;SDS011;4771;48.726;9.006;2023-02-01T05:41:43;2.30;;;2.10;;
9465;SDS011;4771;48.726;9.006;2023-02-01T05:44:10;2.67;;;2.30;;
9465;SDS011;4771;48.726;9.006;2023-02-01T05:46:36;5.70;;;2.63;;
9465;SDS011;4771;48.726;9.006;2023-02-01T05:49:04;2.63;;;2.20;;
9465;SDS011;4771;48.726;9.006;2023-02-01T05:51:32;2.40;;;2.20;;
9465;SDS011;4771;48.726;9.006;2023-02-01T05:53:59;2.77;;;2.20;;
9465;SDS011;4771;48.726;9.006;2023-02-01T05:56:26;2.20;;;2.00;;
9465;SDS011;4771;48.726;9.006;2023-02-01T05:58:53;2.30;;;2.10;;
9465;SDS011;4771;48.726;9.006;2023-02-01T06:01:20;2.40;;;2.03;;
9465;SDS011;4771;48.726;9.006;2023-02-01T06:03:47;3.60;;;2.30;;
9465;SDS011;4771;48.726;9.006;2023-02-01T06:06:14;2.20;;;2.00;;
9465;SDS011;4771;48.726;9.006;2023-02-01T06:08:42;2.40;;;2.20;;
9465;SDS011;4771;48.726;9.006;2023-02-01T06:11:09;3.37;;;2.40;;
9465;SDS011;4771;48.726;9.006;2023-02-01T06:13:35;4.53;;;2.30;;
9465;SDS011;4771;48.726;9.006;2023-02-01T06:16:03;2.53;;;2.10;;
9465;SDS011;4771;48.726;9.006;2023-02-01T06:18:32;4.30;;;2.30;;
9465;SDS011;4771;48.726;9.006;2023-02-01T06:20:59;3.67;;;2.30;;
9465;SDS011;4771;48.726;9.006;2023-02-01T06:23:26;2.67;;;2.00;;
9465;SDS011;4771;48.726;9.006;2023-02-01T06:25:59;6.20;;;2.43;;
9465;SDS011;4771;48.726;9.006;2023-02-01T06:28:27;4.73;;;2.40;;
9465;SDS011;4771;48.726;9.006;2023-02-01T06:30:54;4.90;;;2.07;;
9465;SDS011;4771;48.726;9.006;2023-02-01T06:33:22;5.27;;;2.43;;
9465;SDS011;4771;48.726;9.006;2023-02-01T06:35:56;2.53;;;2.00;;
9465;SDS011;4771;48.726;9.006;2023-02-01T06:38:23;2.63;;;2.27;;
9465;SDS011;4771;48.726;9.006;2023-02-01T06:40:52;3.60;;;2.40;;
9465;SDS011;4771;48.726;9.006;2023-02-01T06:43:21;2.50;;;2.27;;
9465;SDS011;4771;48.726;9.006;2023-02-01T06:45:47;4.83;;;1.93;;
9465;SDS011;4771;48.726;9.006;2023-02-01T06:48:14;3.53;;;2.03;;
9465;SDS011;4771;48.726;9.006;2023-02-01T06:50:41;2.97;;;2.50;;
9465;SDS011;4771;48.726;9.006;2023-02-01T06:53:08;3.47;;;2.43;;
9465;SDS011;4771;48.726;9.006;2023-02-01T06:55:35;4.03;;;2.30;;
9465;SDS011;4771;48.726;9.006;2023-02-01T06:58:02;3.20;;;2.20;;
9465;SDS011;4771;48.726;9.006;2023-02-01T07:00:31;4.30;;;2.40;;
9465;SDS011;4771;48.726;9.006;2023-02-01T07:02:57;3.50;;;2.30;;
9465;SDS011;4771;48.726;9.006;2023-02-01T07:05:25;4.47;;;2.50;;
9465;SDS011;4771;48.726;9.006;2023-02-01T07:07:52;2.43;;;2.20;;
9465;SDS011;4771;48.726;9.006;2023-02-01T07:10:18;4.70;;;2.53;;
9465;SDS011;4771;48.726;9.006;2023-02-01T07:12:45;5.20;;;2.27;;
9465;SDS011;4771;48.726;9.006;2023-02-01T07:15:12;3.43;;;2.53;;
9465;SDS011;4771;48.726;9.006;2023-02-01T07:17:40;3.67;;;2.43;;
9465;SDS011;4771;48.726;9.006;2023-02-01T07:20:08;4.10;;;2.00;;
9465;SDS011;4771;48.726;9.006;2023-02-01T07:22:35;3.87;;;2.30;;
9465;SDS011;4771;48.726;9.006;2023-02-01T07:25:02;4.60;;;2.50;;
9465;SDS011;4771;48.726;9.006;2023-02-01T07:27:30;3.07;;;2.03;;
9465;SDS011;4771;48.726;9.006;2023-02-01T07:30:00;5.83;;;2.17;;
9465;SDS011;4771;48.726;9.006;2023-02-01T07:32:27;4.17;;;2.03;;
9465;SDS011;4771;48.726;9.006;2023-02-01T07:34:55;3.20;;;2.30;;
9465;SDS011;4771;48.726;9.006;2023-02-01T07:37:22;4.67;;;2.30;;
9465;SDS011;4771;48.726;9.006;2023-02-01T07:39:49;4.37;;;2.30;;
9465;SDS011;4771;48.726;9.006;2023-02-01T07:42:16;2.70;;;1.73;;
9465;SDS011;4771;48.726;9.006;2023-02-01T07:44:43;5.60;;;2.10;;
9465;SDS011;4771;48.726;9.006;2023-02-01T07:47:10;4.47;;;2.10;;
9465;SDS011;4771;48.726;9.006;2023-02-01T07:49:37;4.00;;;2.13;;
9465;SDS011;4771;48.726;9.006;2023-02-01T07:52:05;5.00;;;2.57;;
9465;SDS011;4771;48.726;9.006;2023-02-01T07:54:32;5.40;;;2.50;;
9465;SDS011;4771;48.726;9.006;2023-02-01T07:56:59;7.23;;;2.30;;
9465;SDS011;4771;48.726;9.006;2023-02-01T07:59:26;5.87;;;2.43;;
9465;SDS011;4771;48.726;9.006;2023-02-01T08:01:52;5.90;;;2.90;;
9465;SDS011;4771;48.726;9.006;2023-02-01T08:04:18;9.57;;;3.23;;
9465;SDS011;4771;48.726;9.006;2023-02-01T08:06:45;6.37;;;2.53;;
9465;SDS011;4771;48.726;9.006;2023-02-01T08:09:13;6.90;;;2.60;;
9465;SDS011;4771;48.726;9.006;2023-02-01T08:11:40;6.47;;;2.63;;
9465;SDS011;4771;48.726;9.006;2023-02-01T08:14:07;5.27;;;2.60;;
9465;SDS011;4771;48.726;9.006;2023-02-01T08:16:34;5.90;;;2.70;;
9465;SDS011;4771;48.726;9.006;2023-02-01T08:19:02;8.73;;;2.80;;
9465;SDS011;4771;48.726;9.006;2023-02-01T08:21:30;8.67;;;2.80;;
9465;SDS011;4771;48.726;9.006;2023-02-01T08:24:02;7.27;;;2.93;;
9465;SDS011;4771;48.726;9.006;2023-02-01T08:26:34;9.30;;;2.70;;
9465;SDS011;4771;48.726;9.006;2023-02-01T08:29:02;6.60;;;2.60;;
9465;SDS011;4771;48.726;9.006;2023-02-01T08:31:31;6.50;;;2.53;;
9465;SDS011;4771;48.726;9.006;2023-02-01T08:33:59;7.10;;;2.57;;
9465;SDS011;4771;48.726;9.006;2023-02-01T08:36:29;6.47;;;2.87;;
9465;SDS011;4771;48.726;9.006;2023-02-01T08:38:57;6.23;;;2.73;;
9465;SDS011;4771;48.726;9.006;2023-02-01T08:41:25;7.70;;;2.83;;
9465;SDS011;4771;48.726;9.006;2023-02-01T08:43:55;10.07;;;2.90;;
9465;SDS011;4771;48.726;9.006;2023-02-01T08:46:22;6.30;;;2.60;;
9465;SDS011;4771;48.726;9.006;2023-02-01T08:48:51;8.20;;;2.93;;
9465;SDS011;4771;48.726;9.006;2023-02-01T08:51:19;6.30;;;2.53;;
9465;SDS011;4771;48.726;9.006;2023-02-01T08:53:47;8.77;;;2.50;;
9465;SDS011;4771;48.726;9.006;2023-02-01T08:56:15;7.67;;;2.57;;
9465;SDS011;4771;48.726;9.006;2023-02-01T08:58:43;4.07;;;2.20;;
9465;SDS011;4771;48.726;9.006;2023-02-01T09:01:11;8.03;;;2.60;;
9465;SDS011;4771;48.726;9.006;2023-02-01T09:03:40;7.13;;;2.77;;
9465;SDS011;4771;48.726;9.006;2023-02-01T09:06:08;5.97;;;2.30;;
9465;SDS011;4771;48.726;9.006;2023-02-01T09:08:37;12.57;;;4.73;;
9465;SDS011;4771;48.726;9.006;2023-02-01T09:11:07;8.87;;;2.47;;
9465;SDS011;4771;48.726;9.006;2023-02-01T09:13:36;4.03;;;2.00;;
9465;SDS011;4771;48.726;9.006;2023-02-01T09:16:03;4.73;;;2.50;;
9465;SDS011;4771;48.726;9.006;2023-02-01T09:21:03;8.77;;;2.70;;
9465;SDS011;4771;48.726;9.006;2023-02-01T09:23:31;9.57;;;2.60;;
9465;SDS011;4771;48.726;9.006;2023-02-01T09:26:08;8.97;;;2.43;;
9465;SDS011;4771;48.726;9.006;2023-02-01T09:28:36;9.80;;;3.10;;
9465;SDS011;4771;48.726;9.006;2023-02-01T09:31:03;9.73;;;2.93;;
9465;SDS011;4771;48.726;9.006;2023-02-01T09:33:30;12.30;;;3.83;;
9465;SDS011;4771;48.726;9.006;2023-02-01T09:35:58;10.80;;;2.50;;
9465;SDS011;4771;48.726;9.006;2023-02-01T09:38:27;11.83;;;3.30;;
9465;SDS011;4771;48.726;9.006;2023-02-01T09:40:54;8.00;;;2.87;;
9465;SDS011;4771;48.726;9.006;2023-02-01T09:43:25;10.23;;;3.73;;
9465;SDS011;4771;48.726;9.006;2023-02-01T09:46:19;11.07;;;3.17;;
9465;SDS011;4771;48.726;9.006;2023-02-01T09:48:57;12.70;;;3.23;;
9465;SDS011;4771;48.726;9.006;2023-02-01T09:51:29;10.73;;;3.40;;
9465;SDS011;4771;48.726;9.006;2023-02-01T09:54:00;9.70;;;2.73;;
9465;SDS011;4771;48.726;9.006;2023-02-01T09:56:34;10.57;;;3.17;;
9465;SDS011;4771;48.726;9.006;2023-02-01T09:59:08;10.77;;;3.13;;
9465;SDS011;4771;48.726;9.006;2023-02-01T10:01:43;9.37;;;2.97;;
9465;SDS011;4771;48.726;9.006;2023-02-01T10:04:11;15.63;;;3.73;;
9465;SDS011;4771;48.726;9.006;2023-02-01T10:06:49;7.90;;;2.43;;
9465;SDS011;4771;48.726;9.006;2023-02-01T10:09:34;11.43;;;2.80;;
9465;SDS011;4771;48.726;9.006;2023-02-01T10:12:16;7.70;;;2.80;;
9465;SDS011;4771;48.726;9.006;2023-02-01T10:15:10;7.23;;;2.47;;
9465;SDS011;4771;48.726;9.006;2023-02-01T10:17:49;10.27;;;3.10;;
9465;SDS011;4771;48.726;9.006;2023-02-01T10:20:27;11.43;;;3.43;;
9465;SDS011;4771;48.726;9.006;2023-02-01T10:23:07;10.70;;;2.83;;
9465;SDS011;4771;48.726;9.006;2023-02-01T10:25:49;11.83;;;3.00;;
9465;SDS011;4771;48.726;9.006;2023-02-01T10:28:20;11.77;;;3.30;;
9465;SDS011;4771;48.726;9.006;2023-02-01T10:30:50;14.33;;;3.97;;
9465;SDS011;4771;48.726;9.006;2023-02-01T10:33:22;11.60;;;3.67;;
9465;SDS011;4771;48.726;9.006;2023-02-01T10:35:52;11.10;;;3.03;;
9465;SDS011;4771;48.726;9.006;2023-02-01T10:38:30;9.30;;;3.10;;
9465;SDS011;4771;48.726;9.006;2023-02-01T10:40:59;6.63;;;2.70;;
9465;SDS011;4771;48.726;9.006;2023-02-01T10:43:29;12.07;;;3.10;;
9465;SDS011;4771;48.726;9.006;2023-02-01T10:45:59;8.27;;;2.77;;
9465;SDS011;4771;48.726;9.006;2023-02-01T10:48:26;10.97;;;2.97;;
9465;SDS011;4771;48.726;9.006;2023-02-01T10:50:54;13.37;;;2.77;;
9465;SDS011;4771;48.726;9.006;2023-02-01T10:53:25;9.93;;;3.03;;
9465;SDS011;4771;48.726;9.006;2023-02-01T10:56:05;12.53;;;2.87;;
9465;SDS011;4771;48.726;9.006;2023-02-01T10:58:33;11.30;;;2.53;;
9465;SDS011;4771;48.726;9.006;2023-02-01T11:01:08;9.80;;;2.50;;
9465;SDS011;4771;48.726;9.006;2023-02-01T11:03:41;7.93;;;2.40;;
9465;SDS011;4771;48.726;9.006;2023-02-01T11:06:11;10.23;;;2.60;;
9465;SDS011;4771;48.726;9.006;2023-02-01T11:08:50;7.30;;;2.33;;
9465;SDS011;4771;48.726;9.006;2023-02-01T11:11:18;9.00;;;2.53;;
9465;SDS011;4771;48.726;9.006;2023-02-01T11:13:45;12.00;;;2.90;;
9465;SDS011;4771;48.726;9.006;2023-02-01T11:16:19;14.40;;;2.87;;
9465;SDS011;4771;48.726;9.006;2023-02-01T11:18:46;8.90;;;2.47;;
9465;SDS011;4771;48.726;9.006;2023-02-01T11:21:19;12.80;;;2.73;;
9465;SDS011;4771;48.726;9.006;2023-02-01T11:23:49;8.63;;;3.13;;
9465;SDS011;4771;48.726;9.006;2023-02-01T11:26:20;9.87;;;2.63;;
9465;SDS011;4771;48.726;9.006;2023-02-01T11:28:52;11.57;;;3.20;;
9465;SDS011;4771;48.726;9.006;2023-02-01T11:31:23;8.77;;;2.80;;
9465;SDS011;4771;48.726;9.006;2023-02-01T11:33:53;9.20;;;2.73;;
9465;SDS011;4771;48.726;9.006;2023-02-01T11:36:24;10.40;;;2.90;;
9465;SDS011;4771;48.726;9.006;2023-02-01T11:39:08;11.07;;;3.17;;
9465;SDS011;4771;48.726;9.006;2023-02-01T11:41:44;11.10;;;2.80;;
9465;SDS011;4771;48.726;9.006;2023-02-01T11:44:23;8.40;;;2.30;;
9465;SDS011;4771;48.726;9.006;2023-02-01T11:46:57;14.10;;;3.10;;
9465;SDS011;4771;48.726;9.006;2023-02-01T11:49:50;11.37;;;2.70;;
9465;SDS011;4771;48.726;9.006;2023-02-01T11:52:19;8.67;;;2.53;;
9465;SDS011;4771;48.726;9.006;2023-02-01T11:55:03;9.43;;;2.60;;
9465;SDS011;4771;48.726;9.006;2023-02-01T11:57:41;7.47;;;2.60;;
9465;SDS011;4771;48.726;9.006;2023-02-01T12:03:16;8.63;;;2.50;;
9465;SDS011;4771;48.726;9.006;2023-02-01T12:05:59;6.87;;;2.50;;
9465;SDS011;4771;48.726;9.006;2023-02-01T12:08:37;10.77;;;2.80;;
9465;SDS011;4771;48.726;9.006;2023-02-01T12:11:32;10.73;;;2.27;;
9465;SDS011;4771;48.726;9.006;2023-02-01T12:14:14;7.80;;;2.83;;
9465;SDS011;4771;48.726;9.006;2023-02-01T12:17:06;9.27;;;2.67;;
9465;SDS011;4771;48.726;9.006;2023-02-01T12:19:52;7.20;;;2.50;;
9465;SDS011;4771;48.726;9.006;2023-02-01T12:22:31;9.60;;;2.83;;
9465;SDS011;4771;48.726;9.006;2023-02-01T12:25:14;10.13;;;2.73;;
9465;SDS011;4771;48.726;9.006;2023-02-01T12:27:58;8.37;;;3.03;;
9465;SDS011;4771;48.726;9.006;2023-02-01T12:31:00;9.23;;;3.03;;
9465;SDS011;4771;48.726;9.006;2023-02-01T12:33:42;8.20;;;2.80;;
9465;SDS011;4771;48.726;9.006;2023-02-01T12:36:21;9.87;;;2.60;;
9465;SDS011;4771;48.726;9.006;2023-02-01T12:39:07;11.10;;;2.73;;
9465;SDS011;4771;48.726;9.006;2023-02-01T12:41:58;9.47;;;2.50;;
9465;SDS011;4771;48.726;9.006;2023-02-01T12:44:37;6.27;;;2.27;;
9465;SDS011;4771;48.726;9.006;2023-02-01T12:47:12;8.80;;;2.60;;
9465;SDS011;4771;48.726;9.006;2023-02-01T12:49:46;8.03;;;2.90;;
9465;SDS011;4771;48.726;9.006;2023-02-01T12:52:18;5.77;;;2.40;;
9465;SDS011;4771;48.726;9.006;2023-02-01T12:54:53;7.17;;;2.47;;
9465;SDS011;4771;48.726;9.006;2023-02-01T12:57:25;8.37;;;2.60;;
9465;SDS011;4771;48.726;9.006;2023-02-01T12:59:59;9.73;;;2.80;;
9465;SDS011;4771;48.726;9.006;2023-02-01T13:02:34;8.47;;;2.60;;
9465;SDS011;4771;48.726;9.006;2023-02-01T13:05:11;7.53;;;2.67;;
9465;SDS011;4771;48.726;9.006;2023-02-01T13:07:43;12.43;;;2.83;;
9465;SDS011;4771;48.726;9.006;2023-02-01T13:10:16;5.57;;;2.43;;
9465;SDS011;4771;48.726;9.006;2023-02-01T13:12:49;8.30;;;2.60;;
9465;SDS011;4771;48.726;9.006;2023-02-01T13:15:23;9.37;;;2.37;;
9465;SDS011;4771;48.726;9.006;2023-02-01T13:17:54;10.27;;;3.23;;
9465;SDS011;4771;48.726;9.006;2023-02-01T13:20:26;8.87;;;2.50;;
9465;SDS011;4771;48.726;9.006;2023-02-01T13:22:58;7.37;;;2.47;;
9465;SDS011;4771;48.726;9.006;2023-02-01T13:25:29;6.90;;;2.47;;
9465;SDS011;4771;48.726;9.006;2023-02-01T13:28:03;12.30;;;3.00;;
9465;SDS011;4771;48.726;9.006;2023-02-01T13:30:42;10.17;;;2.93;;
9465;SDS011;4771;48.726;9.006;2023-02-01T13:36:38;12.23;;;3.50;;
9465;SDS011;4771;48.726;9.006;2023-02-01T13:39:24;9.57;;;2.50;;
9465;SDS011;4771;48.726;9.006;2023-02-01T13:42:18;9.37;;;2.87;;
9465;SDS011;4771;48.726;9.006;2023-02-01T13:44:48;7.17;;;2.10;;
9465;SDS011;4771;48.726;9.006;2023-02-01T13:47:23;10.73;;;2.57;;
9465;SDS011;4771;48.726;9.006;2023-02-01T13:49:54;6.77;;;2.53;;
9465;SDS011;4771;48.726;9.006;2023-02-01T13:52:25;11.57;;;2.57;;
9465;SDS011;4771;48.726;9.006;2023-02-01T13:55:04;4.40;;;2.53;;
9465;SDS011;4771;48.726;9.006;2023-02-01T13:58:14;7.30;;;2.77;;
9465;SDS011;4771;48.726;9.006;2023-02-01T14:00:45;11.67;;;2.60;;
9465;SDS011;4771;48.726;9.006;2023-02-01T14:03:15;7.43;;;2.10;;
9465;SDS011;4771;48.726;9.006;2023-02-01T14:05:54;8.77;;;2.47;;
9465;SDS011;4771;48.726;9.006;2023-02-01T14:11:42;8.37;;;2.53;;
9465;SDS011;4771;48.726;9.006;2023-02-01T14:23:19;7.23;;;2.57;;
9465;SDS011;4771;48.726;9.006;2023-02-01T14:25:59;9.13;;;2.70;;
9465;SDS011;4771;48.726;9.006;2023-02-01T14:28:40;7.77;;;2.40;;
9465;SDS011;4771;48.726;9.006;2023-02-01T14:31:30;9.90;;;2.40;;
9465;SDS011;4771;48.726;9.006;2023-02-01T14:34:17;8.90;;;2.50;;
9465;SDS011;4771;48.726;9.006;2023-02-01T14:36:48;7.20;;;2.30;;
9465;SDS011;4771;48.726;9.006;2023-02-01T14:39:20;9.50;;;2.37;;
9465;SDS011;4771;48.726;9.006;2023-02-01T14:41:52;10.20;;;2.90;;
9465;SDS011;4771;48.726;9.006;2023-02-01T14:44:24;11.77;;;3.27;;
9465;SDS011;4771;48.726;9.006;2023-02-01T14:47:03;12.27;;;2.73;;
9465;SDS011;4771;48.726;9.006;2023-02-01T14:49:53;7.67;;;2.53;;
9465;SDS011;4771;48.726;9.006;2023-02-01T14:52:23;10.30;;;2.97;;
9465;SDS011;4771;48.726;9.006;2023-02-01T14:55:00;11.77;;;2.87;;
9465;SDS011;4771;48.726;9.006;2023-02-01T14:57:31;6.70;;;2.30;;
9465;SDS011;4771;48.726;9.006;2023-02-01T15:00:06;9.03;;;2.90;;
9465;SDS011;4771;48.726;9.006;2023-02-01T15:02:47;12.33;;;2.63;;
9465;SDS011;4771;48.726;9.006;2023-02-01T15:05:23;9.90;;;2.80;;
9465;SDS011;4771;48.726;9.006;2023-02-01T15:07:56;8.60;;;2.53;;
9465;SDS011;4771;48.726;9.006;2023-02-01T15:10:27;11.10;;;2.47;;
9465;SDS011;4771;48.726;9.006;2023-02-01T15:12:57;10.57;;;3.10;;
9465;SDS011;4771;48.726;9.006;2023-02-01T15:15:24;9.57;;;2.80;;
9465;SDS011;4771;48.726;9.006;2023-02-01T15:17:52;9.37;;;2.70;;
9465;SDS011;4771;48.726;9.006;2023-02-01T15:20:21;10.37;;;3.13;;
9465;SDS011;4771;48.726;9.006;2023-02-01T15:22:53;9.43;;;2.60;;
9465;SDS011;4771;48.726;9.006;2023-02-01T15:25:23;5.70;;;2.60;;
9465;SDS011;4771;48.726;9.006;2023-02-01T15:27:53;8.60;;;2.67;;
9465;SDS011;4771;48.726;9.006;2023-02-01T15:30:21;9.33;;;2.73;;
9465;SDS011;4771;48.726;9.006;2023-02-01T15:32:50;9.40;;;2.97;;
9465;SDS011;4771;48.726;9.006;2023-02-01T15:38:19;11.50;;;2.70;;
9465;SDS011;4771;48.726;9.006;2023-02-01T15:41:07;11.50;;;3.10;;
9465;SDS011;4771;48.726;9.006;2023-02-01T15:43:40;11.73;;;2.80;;
9465;SDS011;4771;48.726;9.006;2023-02-01T15:46:10;10.93;;;2.50;;
9465;SDS011;4771;48.726;9.006;2023-02-01T15:48:41;7.20;;;1.93;;
9465;SDS011;4771;48.726;9.006;2023-02-01T15:51:17;8.33;;;2.80;;
9465;SDS011;4771;48.726;9.006;2023-02-01T15:53:49;9.10;;;2.70;;
9465;SDS011;4771;48.726;9.006;2023-02-01T15:56:22;8.37;;;2.60;;
9465;SDS011;4771;48.726;9.006;2023-02-01T15:58:53;12.57;;;2.50;;
9465;SDS011;4771;48.726;9.006;2023-02-01T16:01:22;8.80;;;2.43;;
9465;SDS011;4771;48.726;9.006;2023-02-01T16:04:00;7.63;;;2.70;;
9465;SDS011;4771;48.726;9.006;2023-02-01T16:06:30;6.10;;;2.13;;
9465;SDS011;4771;48.726;9.006;2023-02-01T16:09:03;8.80;;;2.73;;
9465;SDS011;4771;48.726;9.006;2023-02-01T16:11:41;9.47;;;3.40;;
9465;SDS011;4771;48.726;9.006;2023-02-01T16:14:15;7.60;;;4.40;;